createdAt,value
2024-05-09T00:32:59.313Z,11.50
2024-05-09T00:35:26.478Z,12.60
2024-05-09T00:37:53.501Z,12.02
2024-05-09T00:40:30.763Z,13.93
2024-05-09T00:43:08.918Z,11.07
2024-05-09T00:45:36.217Z,11.15
2024-05-09T00:48:07.086Z,12.32
2024-05-09T00:50:37.966Z,15.40
2024-05-09T00:53:07.782Z,12.85
2024-05-09T00:55:36.397Z,10.80
2024-05-09T00:58:05.266Z,12.15
2024-05-09T01:00:38.797Z,10.55
2024-05-09T01:03:09.486Z,17.75
2024-05-09T01:05:39.207Z,11.20
2024-05-09T01:08:07.101Z,14.50
2024-05-09T01:10:35.803Z,15.98
2024-05-09T01:13:04.575Z,15.20
2024-05-09T01:15:31.990Z,16.45
2024-05-09T01:18:03.992Z,21.10
2024-05-09T01:20:39.816Z,11.55
2024-05-09T01:23:10.528Z,15.45
2024-05-09T01:25:37.861Z,13.70
2024-05-09T01:28:05.414Z,15.00
2024-05-09T01:33:07.277Z,13.13
2024-05-09T01:35:36.310Z,12.55
2024-05-09T01:38:03.606Z,12.70
2024-05-09T01:40:37.332Z,15.60
2024-05-09T01:43:11.066Z,12.98
2024-05-09T01:45:39.899Z,15.88
2024-05-09T01:48:08.318Z,16.38
2024-05-09T01:50:39.860Z,13.95
2024-05-09T01:53:14.362Z,14.43
2024-05-09T01:55:42.454Z,17.90
2024-05-09T02:00:40.780Z,11.68
2024-05-09T02:03:14.457Z,13.15
2024-05-09T02:05:45.077Z,14.75
2024-05-09T02:08:20.132Z,12.20
2024-05-09T02:10:49.254Z,13.57
2024-05-09T02:13:16.968Z,14.35
2024-05-09T02:15:44.215Z,16.00
2024-05-09T02:18:11.985Z,14.73
2024-05-09T02:20:41.080Z,18.20
2024-05-09T02:23:09.193Z,11.70
2024-05-09T02:25:36.467Z,11.57
2024-05-09T02:28:03.593Z,27.55
2024-05-09T02:30:38.763Z,14.00
2024-05-09T02:33:10.793Z,17.35
2024-05-09T02:35:39.896Z,16.50
2024-05-09T02:40:37.876Z,16.10
2024-05-09T02:43:07.873Z,20.23
2024-05-09T02:45:35.369Z,15.88
2024-05-09T02:48:02.793Z,12.52
2024-05-09T02:50:37.172Z,18.15
2024-05-09T02:53:12.472Z,19.80
2024-05-09T02:55:40.237Z,15.48
2024-05-09T02:58:07.983Z,15.50
2024-05-09T03:00:39.666Z,13.20
2024-05-09T03:03:11.270Z,13.15
2024-05-09T03:05:40.903Z,10.98
2024-05-09T03:10:37.427Z,21.20
2024-05-09T03:13:11.730Z,19.02
2024-05-09T03:15:38.899Z,16.02
2024-05-09T03:18:06.555Z,13.98
2024-05-09T03:20:35.753Z,19.52
2024-05-09T03:23:05.338Z,14.35
2024-05-09T03:25:32.882Z,16.73
2024-05-09T03:27:59.965Z,14.10
2024-05-09T03:30:38.396Z,13.25
2024-05-09T03:33:20.064Z,13.55
2024-05-09T03:35:49.035Z,16.50
2024-05-09T03:38:16.816Z,16.88
2024-05-09T03:43:16.141Z,14.63
2024-05-09T03:45:43.721Z,17.73
2024-05-09T03:48:11.046Z,14.43
2024-05-09T03:50:38.587Z,17.45
2024-05-09T03:53:05.939Z,17.20
2024-05-09T03:55:32.940Z,15.80
2024-05-09T03:57:59.954Z,16.08
2024-05-09T04:00:35.172Z,17.02
2024-05-09T04:03:08.922Z,19.30
2024-05-09T04:05:40.563Z,15.52
2024-05-09T04:08:08.951Z,18.02
2024-05-09T04:10:36.107Z,21.40
2024-05-09T04:13:04.096Z,14.13
2024-05-09T04:15:31.641Z,16.05
2024-05-09T04:23:07.894Z,15.25
2024-05-09T04:25:35.667Z,18.13
2024-05-09T04:28:02.638Z,14.02
2024-05-09T04:30:37.281Z,13.13
2024-05-09T04:33:09.278Z,15.00
2024-05-09T04:35:38.891Z,12.48
2024-05-09T04:38:06.390Z,24.73
2024-05-09T04:43:05.280Z,21.02
2024-05-09T04:45:32.455Z,22.42
2024-05-09T04:47:59.786Z,24.98
2024-05-09T04:53:06.473Z,17.02
2024-05-09T04:55:36.262Z,16.80
2024-05-09T04:58:03.339Z,17.63
2024-05-09T05:00:36.038Z,18.58
2024-05-09T05:03:09.072Z,15.85
2024-05-09T05:05:41.136Z,15.32
2024-05-09T05:08:26.520Z,19.65
2024-05-09T05:10:53.521Z,17.15
2024-05-09T05:13:21.849Z,18.77
2024-05-09T05:15:52.096Z,17.02
2024-05-09T05:18:19.670Z,15.85
2024-05-09T05:20:47.146Z,13.93
2024-05-09T05:23:16.769Z,21.85
2024-05-09T05:25:44.976Z,18.63
2024-05-09T05:28:11.952Z,19.40
2024-05-09T05:30:40.093Z,15.18
2024-05-09T05:33:10.774Z,17.85
2024-05-09T05:35:39.192Z,15.68
2024-05-09T05:38:10.273Z,16.50
2024-05-09T05:40:38.695Z,25.08
2024-05-09T05:43:11.264Z,25.35
2024-05-09T05:45:39.028Z,20.73
2024-05-09T05:48:07.718Z,18.50
2024-05-09T05:50:37.483Z,31.35
2024-05-09T05:53:07.896Z,25.52
2024-05-09T05:55:39.550Z,26.70
2024-05-09T05:58:10.273Z,24.80
2024-05-09T06:00:39.498Z,30.17
2024-05-09T06:03:09.194Z,36.13
2024-05-09T06:05:39.471Z,29.10
2024-05-09T06:08:07.124Z,27.77
2024-05-09T06:13:10.278Z,28.40
2024-05-09T06:15:37.353Z,26.33
2024-05-09T06:18:11.952Z,29.33
2024-05-09T06:20:42.247Z,30.95
2024-05-09T06:23:10.700Z,24.42
2024-05-09T06:30:38.760Z,28.70
2024-05-09T06:33:10.423Z,32.80
2024-05-09T06:35:38.995Z,29.17
2024-05-09T06:38:09.176Z,30.52
2024-05-09T06:40:39.785Z,27.63
2024-05-09T06:43:14.049Z,25.52
2024-05-09T06:45:41.537Z,26.23
2024-05-09T06:48:09.939Z,26.83
2024-05-09T06:50:39.088Z,29.55
2024-05-09T06:53:08.071Z,32.70
2024-05-09T06:55:35.923Z,29.90
2024-05-09T06:58:07.720Z,29.08
2024-05-09T07:00:39.499Z,28.90
2024-05-09T07:03:14.851Z,27.17
2024-05-09T07:05:44.961Z,25.05
2024-05-09T07:08:13.776Z,28.20
2024-05-09T07:10:41.048Z,20.92
2024-05-09T07:13:12.213Z,25.52
2024-05-09T07:15:40.011Z,23.40
2024-05-09T07:18:18.359Z,25.17
2024-05-09T07:20:47.676Z,22.63
2024-05-09T07:23:15.748Z,22.67
2024-05-09T07:25:43.725Z,22.35
2024-05-09T07:28:18.486Z,22.70
2024-05-09T07:30:46.172Z,26.65
2024-05-09T07:33:22.198Z,21.67
2024-05-09T07:35:50.667Z,20.15
2024-05-09T07:38:18.045Z,20.17
2024-05-09T07:40:45.374Z,21.38
2024-05-09T07:45:50.333Z,19.83
2024-05-09T07:52:38.570Z,18.20
2024-05-09T07:53:49.677Z,16.30
2024-05-09T07:56:21.853Z,17.90
2024-05-09T07:58:51.460Z,15.18
2024-05-09T08:01:19.768Z,15.05
2024-05-09T08:03:49.162Z,15.57
2024-05-09T08:06:16.437Z,12.82
2024-05-09T08:08:43.357Z,15.60
2024-05-09T08:11:10.364Z,14.30
2024-05-09T08:13:37.492Z,15.98
2024-05-09T08:16:04.886Z,16.45
2024-05-09T08:18:32.140Z,19.10
2024-05-09T08:20:59.363Z,15.73
2024-05-09T08:23:26.339Z,13.65
2024-05-09T08:25:53.252Z,12.80
2024-05-09T08:28:20.741Z,11.93
2024-05-09T08:30:47.982Z,12.65
2024-05-09T08:35:42.623Z,9.38
2024-05-09T08:38:09.726Z,10.85
2024-05-09T08:40:38.007Z,9.27
2024-05-09T08:43:11.392Z,8.23
2024-05-09T08:45:43.642Z,9.27
2024-05-09T08:48:14.146Z,10.98
2024-05-09T08:50:42.307Z,7.28
2024-05-09T08:53:09.948Z,7.43
2024-05-09T08:55:40.624Z,6.35
2024-05-09T08:58:16.435Z,7.88
2024-05-09T09:00:45.411Z,5.15
2024-05-09T09:03:15.996Z,9.23
2024-05-09T09:05:59.076Z,3.85
2024-05-09T09:08:26.520Z,1.88
2024-05-09T09:10:57.485Z,2.15
2024-05-09T09:13:25.465Z,2.30
2024-05-09T09:15:57.412Z,7.97
2024-05-09T09:18:26.484Z,5.18
2024-05-09T09:20:53.953Z,4.70
2024-05-09T09:23:21.118Z,3.80
2024-05-09T09:28:15.195Z,5.57
2024-05-09T09:30:42.844Z,5.22
2024-05-09T09:33:10.758Z,5.43
2024-05-09T09:35:40.436Z,4.32
2024-05-09T09:38:08.359Z,5.75
2024-05-09T09:40:40.867Z,9.23
2024-05-09T09:43:23.247Z,4.97
2024-05-09T09:45:52.987Z,3.85
2024-05-09T09:48:21.749Z,5.78
2024-05-09T09:50:50.918Z,5.13
2024-05-09T09:53:19.176Z,7.40
2024-05-09T09:55:47.100Z,5.10
2024-05-09T09:58:16.812Z,4.60
2024-05-09T10:00:44.843Z,3.95
2024-05-09T10:03:12.127Z,4.68
2024-05-09T10:08:12.320Z,5.10
2024-05-09T10:10:39.929Z,5.60
2024-05-09T10:13:08.075Z,5.30
2024-05-09T10:15:52.391Z,6.20
2024-05-09T10:18:27.017Z,4.40
2024-05-09T10:20:56.462Z,4.38
2024-05-09T10:23:31.118Z,6.70
2024-05-09T10:26:06.242Z,6.22
2024-05-09T10:28:36.807Z,6.05
2024-05-09T10:31:08.602Z,5.00
2024-05-09T10:33:49.703Z,5.75
2024-05-09T10:36:22.629Z,5.15
2024-05-09T10:38:50.725Z,5.05
2024-05-09T10:41:18.552Z,5.00
2024-05-09T10:43:46.088Z,4.97
2024-05-09T10:46:14.453Z,5.00
2024-05-09T10:48:44.961Z,5.00
2024-05-09T10:51:13.197Z,4.85
2024-05-09T10:53:42.203Z,8.02
2024-05-09T10:56:09.575Z,4.32
2024-05-09T10:58:36.955Z,5.40
2024-05-09T11:01:06.692Z,4.85
2024-05-09T11:03:35.014Z,4.38
2024-05-09T11:06:02.424Z,4.57
2024-05-09T11:08:31.889Z,11.18
2024-05-09T11:11:03.015Z,7.00
2024-05-09T11:13:32.072Z,4.38
2024-05-09T11:16:00.192Z,5.28
2024-05-09T11:18:32.152Z,4.70
2024-05-09T11:21:02.665Z,4.55
2024-05-09T11:23:30.695Z,5.80
2024-05-09T11:25:58.959Z,5.13
2024-05-09T11:28:28.885Z,5.13
2024-05-09T11:31:09.456Z,4.57
2024-05-09T11:33:45.726Z,4.85
2024-05-09T11:36:13.571Z,4.15
2024-05-09T11:38:41.080Z,4.43
2024-05-09T11:41:08.348Z,4.57
2024-05-09T11:43:35.500Z,4.00
2024-05-09T11:48:31.246Z,4.18
2024-05-09T11:50:58.578Z,4.85
2024-05-09T11:55:52.545Z,5.82
2024-05-09T11:58:21.407Z,11.50
2024-05-09T12:00:48.729Z,4.28
2024-05-09T12:03:16.099Z,4.45
2024-05-09T12:05:43.312Z,5.50
2024-05-09T12:08:10.393Z,4.22
2024-05-09T12:13:06.546Z,5.07
2024-05-09T12:15:37.654Z,4.57
2024-05-09T12:18:06.421Z,3.80
2024-05-09T12:20:38.124Z,4.65
2024-05-09T12:23:09.653Z,4.00
2024-05-09T12:25:39.047Z,4.95
2024-05-09T12:28:07.424Z,5.10
2024-05-09T12:30:38.628Z,3.53
2024-05-09T12:33:08.876Z,2.85
2024-05-09T12:35:36.278Z,3.50
2024-05-09T12:38:04.019Z,4.43
2024-05-09T12:40:36.070Z,5.20
2024-05-09T12:43:07.413Z,4.28
2024-05-09T12:45:35.652Z,4.57
2024-05-09T12:48:04.641Z,3.25
2024-05-09T12:50:34.010Z,4.25
2024-05-09T12:53:03.051Z,3.80
2024-05-09T12:55:37.373Z,3.65
2024-05-09T12:58:12.079Z,4.30
2024-05-09T13:00:39.364Z,4.18
2024-05-09T13:03:07.173Z,2.95
2024-05-09T13:05:34.588Z,3.03
2024-05-09T13:08:03.489Z,4.22
2024-05-09T13:10:32.818Z,10.35
2024-05-09T13:13:01.913Z,3.97
2024-05-09T13:15:31.289Z,4.00
2024-05-09T13:18:02.219Z,5.55
2024-05-09T13:20:34.151Z,3.95
2024-05-09T13:23:04.643Z,3.35
2024-05-09T13:25:32.237Z,3.35
2024-05-09T13:27:59.279Z,4.75
2024-05-09T13:30:34.878Z,3.42
2024-05-09T13:33:07.309Z,4.60
2024-05-09T13:35:35.586Z,3.47
2024-05-09T13:38:04.506Z,3.90
2024-05-09T13:40:34.839Z,4.30
2024-05-09T13:43:04.829Z,5.53
2024-05-09T13:45:32.740Z,2.50
2024-05-09T13:48:00.193Z,4.68
2024-05-09T13:50:33.465Z,3.33
2024-05-09T13:53:05.417Z,4.03
2024-05-09T13:55:33.434Z,3.00
2024-05-09T13:58:01.069Z,3.10
2024-05-09T14:00:41.485Z,3.05
2024-05-09T14:03:14.999Z,3.42
2024-05-09T14:05:43.090Z,2.63
2024-05-09T14:08:10.300Z,5.88
2024-05-09T14:10:43.410Z,3.00
2024-05-09T14:13:10.946Z,2.88
2024-05-09T14:15:38.073Z,3.50
2024-05-09T14:18:06.247Z,2.88
2024-05-09T14:20:33.951Z,3.97
2024-05-09T14:25:29.438Z,3.53
2024-05-09T14:27:58.051Z,4.05
2024-05-09T14:30:35.990Z,2.97
2024-05-09T14:33:06.345Z,2.55
2024-05-09T14:35:34.245Z,3.90
2024-05-09T14:38:01.461Z,2.20
2024-05-09T14:43:01.071Z,3.78
2024-05-09T14:45:29.424Z,2.67
2024-05-09T14:47:56.685Z,2.78
2024-05-09T14:50:32.143Z,2.85
2024-05-09T14:53:03.371Z,2.38
2024-05-09T14:55:30.572Z,4.18
2024-05-09T14:57:57.679Z,2.80
2024-05-09T15:00:29.030Z,5.03
2024-05-09T15:03:00.786Z,2.92
2024-05-09T15:05:27.868Z,2.60
2024-05-09T15:07:57.783Z,4.03
2024-05-09T15:10:33.706Z,2.15
2024-05-09T15:13:03.479Z,2.67
2024-05-09T15:15:30.807Z,2.60
2024-05-09T15:17:58.081Z,3.83
2024-05-09T15:20:33.046Z,4.65
2024-05-09T15:23:03.152Z,2.63
2024-05-09T15:25:30.605Z,3.22
2024-05-09T15:27:57.841Z,5.03
2024-05-09T15:32:54.935Z,2.00
2024-05-09T15:35:21.994Z,2.28
2024-05-09T15:37:49.102Z,2.25
2024-05-09T15:40:26.036Z,2.40
2024-05-09T15:43:02.251Z,2.83
2024-05-09T15:45:29.600Z,5.63
2024-05-09T15:47:57.615Z,1.83
2024-05-09T15:50:35.368Z,2.50
2024-05-09T15:53:07.000Z,2.60
2024-05-09T15:55:34.945Z,2.50
2024-05-09T15:58:03.425Z,2.35
2024-05-09T16:00:38.399Z,2.92
2024-05-09T16:03:13.465Z,3.05
2024-05-09T16:05:48.235Z,4.28
2024-05-09T16:08:16.102Z,3.42
2024-05-09T16:10:45.891Z,2.95
2024-05-09T16:13:14.037Z,4.50
2024-05-09T16:15:41.401Z,2.63
2024-05-09T16:18:08.684Z,3.25
2024-05-09T16:20:40.154Z,2.28
2024-05-09T16:23:09.892Z,3.00
2024-05-09T16:25:37.582Z,1.95
2024-05-09T16:28:08.700Z,3.42
2024-05-09T16:30:38.509Z,7.07
2024-05-09T16:33:06.256Z,2.53
2024-05-09T16:35:34.632Z,5.43
2024-05-09T16:38:03.007Z,2.20
2024-05-09T16:40:37.345Z,1.88
2024-05-09T16:43:08.705Z,1.92
2024-05-09T16:45:36.620Z,2.90
2024-05-09T16:48:04.389Z,1.90
2024-05-09T16:50:34.486Z,2.70
2024-05-09T16:53:06.690Z,1.92
2024-05-09T16:55:35.021Z,3.38
2024-05-09T16:58:02.958Z,1.83
2024-05-09T17:00:39.436Z,2.10
2024-05-09T17:03:11.348Z,5.53
2024-05-09T17:05:39.409Z,3.08
2024-05-09T17:08:07.397Z,2.00
2024-05-09T17:10:35.941Z,5.85
2024-05-09T17:13:05.111Z,3.58
2024-05-09T17:15:33.869Z,5.78
2024-05-09T17:18:01.886Z,2.78
2024-05-09T17:20:33.897Z,2.10
2024-05-09T17:23:04.598Z,2.22
2024-05-09T17:25:32.211Z,2.60
2024-05-09T17:30:36.816Z,2.33
2024-05-09T17:33:07.747Z,3.15
2024-05-09T17:35:38.329Z,3.35
2024-05-09T17:38:06.538Z,2.60
2024-05-09T17:40:36.474Z,3.03
2024-05-09T17:43:10.534Z,2.33
2024-05-09T17:45:40.797Z,3.55
2024-05-09T17:48:10.265Z,2.50
2024-05-09T17:50:38.603Z,6.88
2024-05-09T17:53:06.521Z,3.40
2024-05-09T17:55:34.501Z,2.92
2024-05-09T17:58:02.185Z,2.10
2024-05-09T18:00:37.358Z,2.90
2024-05-09T18:03:10.322Z,3.08
2024-05-09T18:05:37.959Z,2.10
2024-05-09T18:08:06.606Z,3.38
2024-05-09T18:10:37.899Z,5.53
2024-05-09T18:13:08.715Z,2.45
2024-05-09T18:15:36.326Z,2.92
2024-05-09T18:18:04.524Z,2.83
2024-05-09T18:20:40.350Z,2.90
2024-05-09T18:23:11.583Z,3.30
2024-05-09T18:25:38.635Z,2.55
2024-05-09T18:30:35.565Z,2.63
2024-05-09T18:33:05.861Z,2.75
2024-05-09T18:35:34.213Z,2.60
2024-05-09T18:38:01.179Z,2.53
2024-05-09T18:40:34.008Z,4.35
2024-05-09T18:43:05.651Z,2.75
2024-05-09T18:45:34.128Z,3.08
2024-05-09T18:50:34.930Z,2.50
2024-05-09T18:53:12.922Z,2.85
2024-05-09T18:55:41.790Z,3.42
2024-05-09T18:58:08.819Z,4.07
2024-05-09T19:00:38.953Z,4.55
2024-05-09T19:03:10.777Z,4.18
2024-05-09T19:05:40.661Z,4.18
2024-05-09T19:08:08.800Z,3.90
2024-05-09T19:10:38.186Z,3.95
2024-05-09T19:13:09.406Z,3.08
2024-05-09T19:15:40.157Z,3.10
2024-05-09T19:18:08.108Z,4.35
2024-05-09T19:20:36.615Z,4.20
2024-05-09T19:23:05.655Z,3.95
2024-05-09T19:25:33.313Z,3.42
2024-05-09T19:28:01.118Z,4.13
2024-05-09T19:30:37.642Z,5.07
2024-05-09T19:33:08.931Z,3.13
2024-05-09T19:35:36.305Z,6.55
2024-05-09T19:38:03.684Z,3.83
2024-05-09T19:40:32.909Z,3.60
2024-05-09T19:43:02.566Z,3.35
2024-05-09T19:45:30.524Z,2.78
2024-05-09T19:50:32.523Z,3.58
2024-05-09T19:53:08.230Z,6.07
2024-05-09T19:55:35.361Z,3.85
2024-05-09T19:58:08.654Z,3.72
2024-05-09T20:00:38.633Z,3.70
2024-05-09T20:03:08.305Z,3.50
2024-05-09T20:05:36.423Z,3.15
2024-05-09T20:08:04.478Z,3.50
2024-05-09T20:13:03.298Z,3.50
2024-05-09T20:15:34.518Z,2.85
2024-05-09T20:18:02.058Z,3.15
2024-05-09T20:20:37.040Z,5.72
2024-05-09T20:23:08.483Z,3.50
2024-05-09T20:25:35.550Z,3.70
2024-05-09T20:28:02.838Z,4.40
2024-05-09T20:33:07.070Z,3.83
2024-05-09T20:35:35.772Z,5.22
2024-05-09T20:38:03.740Z,9.18
2024-05-09T20:40:35.785Z,4.63
2024-05-09T20:43:06.743Z,5.82
2024-05-09T20:45:34.548Z,4.50
2024-05-09T20:48:02.118Z,4.15
2024-05-09T20:50:37.078Z,3.92
2024-05-09T20:53:09.509Z,4.20
2024-05-09T20:55:36.691Z,3.25
2024-05-09T20:58:03.818Z,5.10
2024-05-09T21:00:39.244Z,3.85
2024-05-09T21:03:10.037Z,3.20
2024-05-09T21:05:37.354Z,3.47
2024-05-09T21:08:04.731Z,4.82
2024-05-09T21:13:03.004Z,3.72
2024-05-09T21:15:31.084Z,3.38
2024-05-09T21:17:58.360Z,3.85
2024-05-09T21:22:59.755Z,5.05
2024-05-09T21:25:26.939Z,3.78
2024-05-09T21:27:54.106Z,5.13
2024-05-09T21:32:51.402Z,4.57
2024-05-09T21:35:18.705Z,5.20
2024-05-09T21:37:45.719Z,4.35
2024-05-09T21:40:17.021Z,5.40
2024-05-09T21:42:51.064Z,7.47
2024-05-09T21:45:18.010Z,4.53
2024-05-09T21:47:45.124Z,7.78
2024-05-09T21:50:22.138Z,8.32
2024-05-09T21:52:50.513Z,5.15
2024-05-09T21:55:17.532Z,6.53
2024-05-09T21:57:45.304Z,4.80
2024-05-09T22:00:28.143Z,5.03
2024-05-09T22:03:02.273Z,5.80
2024-05-09T22:05:29.611Z,9.27
2024-05-09T22:07:56.962Z,5.28
2024-05-09T22:10:30.590Z,6.32
2024-05-09T22:15:28.907Z,9.65
2024-05-09T22:17:57.262Z,5.32
2024-05-09T22:20:33.872Z,5.40
2024-05-09T22:23:04.883Z,9.90
2024-05-09T22:25:32.621Z,5.95
2024-05-09T22:28:01.290Z,7.03
2024-05-09T22:30:35.768Z,7.22
2024-05-09T22:33:07.416Z,5.43
2024-05-09T22:35:34.686Z,7.05
2024-05-09T22:38:02.993Z,6.20
2024-05-09T22:40:38.940Z,6.50
2024-05-09T22:43:16.264Z,6.43
2024-05-09T22:45:43.360Z,6.28
2024-05-09T22:48:10.556Z,5.10
2024-05-09T22:50:37.634Z,6.85
2024-05-09T22:53:05.476Z,5.70
2024-05-09T22:55:32.479Z,5.93
2024-05-09T22:57:59.561Z,5.40
2024-05-09T23:00:31.483Z,9.35
2024-05-09T23:03:01.436Z,7.80
2024-05-09T23:05:29.007Z,10.88
2024-05-09T23:10:31.046Z,6.43
2024-05-09T23:13:02.674Z,7.35
2024-05-09T23:15:29.887Z,5.90
2024-05-09T23:17:57.442Z,6.57
2024-05-09T23:22:54.698Z,7.65
2024-05-09T23:25:21.651Z,6.72
2024-05-09T23:27:48.667Z,7.85
2024-05-09T23:30:25.565Z,5.18
2024-05-09T23:32:59.844Z,6.40
2024-05-09T23:37:53.754Z,5.88
2024-05-09T23:40:23.316Z,6.85
2024-05-09T23:42:51.033Z,6.70
2024-05-09T23:45:17.995Z,7.35
2024-05-09T23:47:45.916Z,16.10
2024-05-09T23:50:17.076Z,7.82
2024-05-09T23:52:50.660Z,12.15
2024-05-09T23:55:17.984Z,6.68
